sensor_id;sensor_type;location;lat;lon;timestamp;temperature;humidity
5419;DHT22;2732;52.092;11.556;2023-04-03T00:02:24;1.70;99.90
5419;DHT22;2732;52.092;11.556;2023-04-03T00:07:24;1.60;99.90
5419;DHT22;2732;52.092;11.556;2023-04-03T00:12:25;1.60;99.90
5419;DHT22;2732;52.092;11.556;2023-04-03T00:17:26;1.50;99.90
5419;DHT22;2732;52.092;11.556;2023-04-03T00:22:26;1.50;99.90
5419;DHT22;2732;52.092;11.556;2023-04-03T00:27:28;1.40;99.90
5419;DHT22;2732;52.092;11.556;2023-04-03T00:32:29;1.40;99.90
5419;DHT22;2732;52.092;11.556;2023-04-03T00:37:30;1.30;99.90
5419;DHT22;2732;52.092;11.556;2023-04-03T00:42:31;1.30;99.90
5419;DHT22;2732;52.092;11.556;2023-04-03T00:47:31;1.20;99.90
5419;DHT22;2732;52.092;11.556;2023-04-03T00:52:32;1.20;99.90
5419;DHT22;2732;52.092;11.556;2023-04-03T00:57:33;1.10;99.90
5419;DHT22;2732;52.092;11.556;2023-04-03T01:02:34;1.10;99.90
5419;DHT22;2732;52.092;11.556;2023-04-03T01:07:34;1.10;99.90
5419;DHT22;2732;52.092;11.556;2023-04-03T01:12:39;1.00;99.90
5419;DHT22;2732;52.092;11.556;2023-04-03T01:17:53;1.00;99.90
5419;DHT22;2732;52.092;11.556;2023-04-03T01:28:12;0.90;99.90
5419;DHT22;2732;52.092;11.556;2023-04-03T01:33:17;0.90;99.90
5419;DHT22;2732;52.092;11.556;2023-04-03T01:38:17;0.80;99.90
5419;DHT22;2732;52.092;11.556;2023-04-03T01:43:18;0.80;99.90
5419;DHT22;2732;52.092;11.556;2023-04-03T01:48:19;0.70;99.90
5419;DHT22;2732;52.092;11.556;2023-04-03T01:53:20;0.70;99.90
5419;DHT22;2732;52.092;11.556;2023-04-03T01:58:20;0.60;99.90
5419;DHT22;2732;52.092;11.556;2023-04-03T02:03:21;0.60;99.90
5419;DHT22;2732;52.092;11.556;2023-04-03T02:08:22;0.60;99.90
5419;DHT22;2732;52.092;11.556;2023-04-03T02:13:23;0.50;99.90
5419;DHT22;2732;52.092;11.556;2023-04-03T02:18:23;0.50;99.90
5419;DHT22;2732;52.092;11.556;2023-04-03T02:23:24;0.40;99.90
5419;DHT22;2732;52.092;11.556;2023-04-03T02:28:24;0.40;99.90
5419;DHT22;2732;52.092;11.556;2023-04-03T02:33:25;0.40;99.90
5419;DHT22;2732;52.092;11.556;2023-04-03T02:38:26;0.30;99.90
5419;DHT22;2732;52.092;11.556;2023-04-03T02:43:27;0.30;99.90
5419;DHT22;2732;52.092;11.556;2023-04-03T02:48:28;0.30;99.90
5419;DHT22;2732;52.092;11.556;2023-04-03T02:53:28;0.20;99.90
5419;DHT22;2732;52.092;11.556;2023-04-03T02:58:29;0.20;99.90
5419;DHT22;2732;52.092;11.556;2023-04-03T03:03:30;0.10;99.90
5419;DHT22;2732;52.092;11.556;2023-04-03T03:08:31;0.10;99.90
5419;DHT22;2732;52.092;11.556;2023-04-03T03:13:32;0.10;99.90
5419;DHT22;2732;52.092;11.556;2023-04-03T03:18:33;0.10;99.90
5419;DHT22;2732;52.092;11.556;2023-04-03T03:23:34;0.00;99.90
5419;DHT22;2732;52.092;11.556;2023-04-03T03:28:36;0.00;99.90
5419;DHT22;2732;52.092;11.556;2023-04-03T03:33:37;0.00;99.90
5419;DHT22;2732;52.092;11.556;2023-04-03T03:38:38;0.00;99.90
5419;DHT22;2732;52.092;11.556;2023-04-03T03:43:39;-0.10;99.90
5419;DHT22;2732;52.092;11.556;2023-04-03T03:48:40;-0.10;99.90
5419;DHT22;2732;52.092;11.556;2023-04-03T03:53:40;-0.10;99.90
5419;DHT22;2732;52.092;11.556;2023-04-03T03:58:41;-0.20;99.90
5419;DHT22;2732;52.092;11.556;2023-04-03T04:03:42;-0.20;99.90
5419;DHT22;2732;52.092;11.556;2023-04-03T04:08:42;-0.20;99.90
5419;DHT22;2732;52.092;11.556;2023-04-03T04:13:43;-0.30;99.90
5419;DHT22;2732;52.092;11.556;2023-04-03T04:18:43;-0.30;99.90
5419;DHT22;2732;52.092;11.556;2023-04-03T04:23:44;-0.30;99.90
5419;DHT22;2732;52.092;11.556;2023-04-03T04:28:45;-0.40;99.90
5419;DHT22;2732;52.092;11.556;2023-04-03T04:33:45;-0.40;99.90
5419;DHT22;2732;52.092;11.556;2023-04-03T04:38:46;-0.40;99.90
5419;DHT22;2732;52.092;11.556;2023-04-03T04:43:46;-0.40;99.90
5419;DHT22;2732;52.092;11.556;2023-04-03T04:48:47;-0.50;99.90
5419;DHT22;2732;52.092;11.556;2023-04-03T04:53:48;-0.50;99.90
5419;DHT22;2732;52.092;11.556;2023-04-03T04:58:49;-0.50;99.90
5419;DHT22;2732;52.092;11.556;2023-04-03T05:03:49;-0.50;99.90
5419;DHT22;2732;52.092;11.556;2023-04-03T05:08:50;-0.50;99.90
5419;DHT22;2732;52.092;11.556;2023-04-03T05:13:51;-0.50;99.90
5419;DHT22;2732;52.092;11.556;2023-04-03T05:18:51;-0.60;99.90
5419;DHT22;2732;52.092;11.556;2023-04-03T05:23:52;-0.60;99.90
5419;DHT22;2732;52.092;11.556;2023-04-03T05:28:52;-0.60;99.90
5419;DHT22;2732;52.092;11.556;2023-04-03T05:33:53;-0.60;99.90
5419;DHT22;2732;52.092;11.556;2023-04-03T05:38:54;-0.50;99.90
5419;DHT22;2732;52.092;11.556;2023-04-03T05:43:57;-0.50;99.90
5419;DHT22;2732;52.092;11.556;2023-04-03T05:48:58;-0.50;99.90
5419;DHT22;2732;52.092;11.556;2023-04-03T05:54:08;-0.50;99.90
5419;DHT22;2732;52.092;11.556;2023-04-03T05:59:11;-0.50;99.90
5419;DHT22;2732;52.092;11.556;2023-04-03T06:04:12;-0.50;99.90
5419;DHT22;2732;52.092;11.556;2023-04-03T06:09:14;-0.50;99.90
5419;DHT22;2732;52.092;11.556;2023-04-03T06:14:18;-0.40;99.90
5419;DHT22;2732;52.092;11.556;2023-04-03T06:19:19;-0.40;99.90
5419;DHT22;2732;52.092;11.556;2023-04-03T06:24:20;-0.40;99.90
5419;DHT22;2732;52.092;11.556;2023-04-03T06:29:23;-0.30;99.90
5419;DHT22;2732;52.092;11.556;2023-04-03T06:34:24;-0.30;99.90
5419;DHT22;2732;52.092;11.556;2023-04-03T06:39:25;-0.20;99.90
5419;DHT22;2732;52.092;11.556;2023-04-03T06:44:25;-0.20;99.90
5419;DHT22;2732;52.092;11.556;2023-04-03T06:49:26;-0.20;99.90
5419;DHT22;2732;52.092;11.556;2023-04-03T06:54:26;-0.10;99.90
5419;DHT22;2732;52.092;11.556;2023-04-03T06:59:27;0.00;99.90
5419;DHT22;2732;52.092;11.556;2023-04-03T07:04:28;0.00;99.90
5419;DHT22;2732;52.092;11.556;2023-04-03T07:09:28;0.10;99.90
5419;DHT22;2732;52.092;11.556;2023-04-03T07:14:29;0.20;99.90
5419;DHT22;2732;52.092;11.556;2023-04-03T07:19:30;0.30;99.90
5419;DHT22;2732;52.092;11.556;2023-04-03T07:24:31;0.40;99.90
5419;DHT22;2732;52.092;11.556;2023-04-03T07:29:32;0.50;99.90
5419;DHT22;2732;52.092;11.556;2023-04-03T07:34:33;0.70;99.90
5419;DHT22;2732;52.092;11.556;2023-04-03T07:39:35;1.00;99.90
5419;DHT22;2732;52.092;11.556;2023-04-03T07:44:38;1.30;99.90
5419;DHT22;2732;52.092;11.556;2023-04-03T07:49:40;1.60;99.90
5419;DHT22;2732;52.092;11.556;2023-04-03T07:54:41;1.90;99.90
5419;DHT22;2732;52.092;11.556;2023-04-03T07:59:42;2.20;99.90
5419;DHT22;2732;52.092;11.556;2023-04-03T08:04:43;2.60;99.90
5419;DHT22;2732;52.092;11.556;2023-04-03T08:09:43;2.90;99.90
5419;DHT22;2732;52.092;11.556;2023-04-03T08:14:45;3.00;99.90
5419;DHT22;2732;52.092;11.556;2023-04-03T08:19:46;3.20;99.90
5419;DHT22;2732;52.092;11.556;2023-04-03T08:24:47;3.70;99.90
5419;DHT22;2732;52.092;11.556;2023-04-03T08:29:47;4.00;99.90
5419;DHT22;2732;52.092;11.556;2023-04-03T08:34:48;4.40;99.90
5419;DHT22;2732;52.092;11.556;2023-04-03T08:39:49;4.70;99.90
5419;DHT22;2732;52.092;11.556;2023-04-03T08:50:28;4.70;99.90
5419;DHT22;2732;52.092;11.556;2023-04-03T08:55:51;4.60;99.90
5419;DHT22;2732;52.092;11.556;2023-04-03T09:01:02;4.50;99.90
5419;DHT22;2732;52.092;11.556;2023-04-03T09:06:13;4.50;99.90
5419;DHT22;2732;52.092;11.556;2023-04-03T09:11:27;4.50;99.90
5419;DHT22;2732;52.092;11.556;2023-04-03T09:16:42;4.90;99.90
5419;DHT22;2732;52.092;11.556;2023-04-03T09:21:43;5.20;99.90
5419;DHT22;2732;52.092;11.556;2023-04-03T09:26:54;6.40;99.90
5419;DHT22;2732;52.092;11.556;2023-04-03T09:32:02;7.20;99.90
5419;DHT22;2732;52.092;11.556;2023-04-03T09:37:04;7.90;99.90
5419;DHT22;2732;52.092;11.556;2023-04-03T09:42:22;8.30;99.90
5419;DHT22;2732;52.092;11.556;2023-04-03T09:47:28;8.50;99.80
5419;DHT22;2732;52.092;11.556;2023-04-03T09:52:30;7.90;99.90
5419;DHT22;2732;52.092;11.556;2023-04-03T09:57:33;7.50;99.90
5419;DHT22;2732;52.092;11.556;2023-04-03T10:02:40;7.70;99.90
5419;DHT22;2732;52.092;11.556;2023-04-03T10:07:41;8.20;99.40
5419;DHT22;2732;52.092;11.556;2023-04-03T10:12:42;9.10;98.90
5419;DHT22;2732;52.092;11.556;2023-04-03T10:23:33;9.90;96.10
5419;DHT22;2732;52.092;11.556;2023-04-03T10:34:36;11.10;93.90
5419;DHT22;2732;52.092;11.556;2023-04-03T10:39:46;11.80;92.30
5419;DHT22;2732;52.092;11.556;2023-04-03T10:56:13;10.00;92.40
5419;DHT22;2732;52.092;11.556;2023-04-03T11:01:21;9.60;93.00
5419;DHT22;2732;52.092;11.556;2023-04-03T11:06:30;9.30;93.30
5419;DHT22;2732;52.092;11.556;2023-04-03T11:11:39;9.60;92.80
5419;DHT22;2732;52.092;11.556;2023-04-03T11:16:45;10.50;91.60
5419;DHT22;2732;52.092;11.556;2023-04-03T11:21:54;10.50;91.50
5419;DHT22;2732;52.092;11.556;2023-04-03T11:27:04;11.10;91.10
5419;DHT22;2732;52.092;11.556;2023-04-03T11:32:27;12.10;90.30
5419;DHT22;2732;52.092;11.556;2023-04-03T11:37:35;12.10;89.20
5419;DHT22;2732;52.092;11.556;2023-04-03T11:42:41;11.40;89.40
5419;DHT22;2732;52.092;11.556;2023-04-03T11:52:57;10.60;90.20
5419;DHT22;2732;52.092;11.556;2023-04-03T11:58:03;10.70;88.70
5419;DHT22;2732;52.092;11.556;2023-04-03T12:08:43;11.70;88.50
5419;DHT22;2732;52.092;11.556;2023-04-03T12:29:21;13.10;82.70
5419;DHT22;2732;52.092;11.556;2023-04-03T12:40:10;12.70;81.40
5419;DHT22;2732;52.092;11.556;2023-04-03T12:45:25;12.00;82.00
5419;DHT22;2732;52.092;11.556;2023-04-03T12:50:31;12.40;81.90
5419;DHT22;2732;52.092;11.556;2023-04-03T12:55:33;12.00;82.10
5419;DHT22;2732;52.092;11.556;2023-04-03T13:00:35;11.40;81.80
5419;DHT22;2732;52.092;11.556;2023-04-03T13:05:39;11.60;82.20
5419;DHT22;2732;52.092;11.556;2023-04-03T13:11:06;12.50;79.90
5419;DHT22;2732;52.092;11.556;2023-04-03T13:16:11;12.70;79.00
5419;DHT22;2732;52.092;11.556;2023-04-03T13:21:21;12.70;79.70
5419;DHT22;2732;52.092;11.556;2023-04-03T13:26:28;12.30;80.20
5419;DHT22;2732;52.092;11.556;2023-04-03T13:31:33;11.60;80.30
5419;DHT22;2732;52.092;11.556;2023-04-03T13:36:44;11.60;79.90
5419;DHT22;2732;52.092;11.556;2023-04-03T13:41:56;12.30;79.50
5419;DHT22;2732;52.092;11.556;2023-04-03T13:47:23;12.70;78.90
5419;DHT22;2732;52.092;11.556;2023-04-03T13:52:29;12.20;78.10
5419;DHT22;2732;52.092;11.556;2023-04-03T13:57:35;12.70;77.70
5419;DHT22;2732;52.092;11.556;2023-04-03T14:02:39;12.80;76.80
5419;DHT22;2732;52.092;11.556;2023-04-03T14:07:41;12.70;77.20
5419;DHT22;2732;52.092;11.556;2023-04-03T14:12:41;12.50;78.70
5419;DHT22;2732;52.092;11.556;2023-04-03T14:17:43;12.10;78.20
5419;DHT22;2732;52.092;11.556;2023-04-03T14:22:43;11.60;79.00
5419;DHT22;2732;52.092;11.556;2023-04-03T14:27:47;11.80;78.00
5419;DHT22;2732;52.092;11.556;2023-04-03T14:32:49;11.80;77.30
5419;DHT22;2732;52.092;11.556;2023-04-03T14:37:51;11.60;77.30
5419;DHT22;2732;52.092;11.556;2023-04-03T14:42:53;11.20;78.10
5419;DHT22;2732;52.092;11.556;2023-04-03T14:47:56;11.00;78.60
5419;DHT22;2732;52.092;11.556;2023-04-03T14:52:59;11.40;78.30
5419;DHT22;2732;52.092;11.556;2023-04-03T14:58:00;11.10;76.90
5419;DHT22;2732;52.092;11.556;2023-04-03T15:03:01;10.70;78.00
5419;DHT22;2732;52.092;11.556;2023-04-03T15:08:02;10.40;77.40
5419;DHT22;2732;52.092;11.556;2023-04-03T15:13:02;10.30;77.60
5419;DHT22;2732;52.092;11.556;2023-04-03T15:18:03;10.50;78.10
5419;DHT22;2732;52.092;11.556;2023-04-03T15:23:05;10.40;78.10
5419;DHT22;2732;52.092;11.556;2023-04-03T15:28:08;10.60;78.40
5419;DHT22;2732;52.092;11.556;2023-04-03T15:33:10;10.80;78.10
5419;DHT22;2732;52.092;11.556;2023-04-03T15:38:10;10.70;77.40
5419;DHT22;2732;52.092;11.556;2023-04-03T15:43:11;10.50;79.40
5419;DHT22;2732;52.092;11.556;2023-04-03T15:48:12;10.20;79.20
5419;DHT22;2732;52.092;11.556;2023-04-03T15:53:13;10.00;79.20
5419;DHT22;2732;52.092;11.556;2023-04-03T15:58:14;9.80;80.00
5419;DHT22;2732;52.092;11.556;2023-04-03T16:03:16;9.60;79.70
5419;DHT22;2732;52.092;11.556;2023-04-03T16:08:19;9.50;79.70
5419;DHT22;2732;52.092;11.556;2023-04-03T16:13:19;9.40;80.40
5419;DHT22;2732;52.092;11.556;2023-04-03T16:18:20;9.20;80.40
5419;DHT22;2732;52.092;11.556;2023-04-03T16:23:22;9.00;80.90
5419;DHT22;2732;52.092;11.556;2023-04-03T16:28:23;8.90;80.80
5419;DHT22;2732;52.092;11.556;2023-04-03T16:33:24;8.70;80.90
5419;DHT22;2732;52.092;11.556;2023-04-03T16:38:24;8.50;80.60
5419;DHT22;2732;52.092;11.556;2023-04-03T16:43:26;8.40;81.70
5419;DHT22;2732;52.092;11.556;2023-04-03T16:48:27;8.20;81.90
5419;DHT22;2732;52.092;11.556;2023-04-03T16:53:28;8.00;82.50
5419;DHT22;2732;52.092;11.556;2023-04-03T16:58:29;7.90;82.20
5419;DHT22;2732;52.092;11.556;2023-04-03T17:03:30;7.70;82.30
5419;DHT22;2732;52.092;11.556;2023-04-03T17:08:30;7.50;83.20
5419;DHT22;2732;52.092;11.556;2023-04-03T17:13:31;7.30;83.70
5419;DHT22;2732;52.092;11.556;2023-04-03T17:18:34;7.20;83.50
5419;DHT22;2732;52.092;11.556;2023-04-03T17:23:36;7.10;83.40
5419;DHT22;2732;52.092;11.556;2023-04-03T17:28:40;6.90;84.10
5419;DHT22;2732;52.092;11.556;2023-04-03T17:33:41;6.80;84.90
5419;DHT22;2732;52.092;11.556;2023-04-03T17:38:41;6.60;84.70
5419;DHT22;2732;52.092;11.556;2023-04-03T17:43:42;6.50;85.70
5419;DHT22;2732;52.092;11.556;2023-04-03T17:48:43;6.40;86.20
5419;DHT22;2732;52.092;11.556;2023-04-03T17:53:44;6.30;86.00
5419;DHT22;2732;52.092;11.556;2023-04-03T17:58:45;6.20;86.10
5419;DHT22;2732;52.092;11.556;2023-04-03T18:03:46;6.10;86.60
5419;DHT22;2732;52.092;11.556;2023-04-03T18:08:57;6.00;87.20
5419;DHT22;2732;52.092;11.556;2023-04-03T18:14:04;5.90;87.50
5419;DHT22;2732;52.092;11.556;2023-04-03T18:19:07;5.80;87.90
5419;DHT22;2732;52.092;11.556;2023-04-03T18:24:16;5.70;88.20
5419;DHT22;2732;52.092;11.556;2023-04-03T18:29:18;5.60;88.30
5419;DHT22;2732;52.092;11.556;2023-04-03T18:34:19;5.50;88.30
5419;DHT22;2732;52.092;11.556;2023-04-03T18:39:20;5.40;89.00
5419;DHT22;2732;52.092;11.556;2023-04-03T18:44:24;5.30;89.30
5419;DHT22;2732;52.092;11.556;2023-04-03T18:49:30;5.20;89.80
5419;DHT22;2732;52.092;11.556;2023-04-03T18:54:32;5.10;89.80
5419;DHT22;2732;52.092;11.556;2023-04-03T18:59:33;5.00;90.10
5419;DHT22;2732;52.092;11.556;2023-04-03T19:04:38;5.00;90.30
5419;DHT22;2732;52.092;11.556;2023-04-03T19:09:43;4.90;90.60
5419;DHT22;2732;52.092;11.556;2023-04-03T19:14:43;4.80;90.50
5419;DHT22;2732;52.092;11.556;2023-04-03T19:19:44;4.80;90.70
5419;DHT22;2732;52.092;11.556;2023-04-03T19:24:45;4.70;90.60
5419;DHT22;2732;52.092;11.556;2023-04-03T19:29:47;4.60;90.70
5419;DHT22;2732;52.092;11.556;2023-04-03T19:34:49;4.50;90.80
5419;DHT22;2732;52.092;11.556;2023-04-03T19:39:50;4.40;91.10
5419;DHT22;2732;52.092;11.556;2023-04-03T19:44:51;4.30;91.30
5419;DHT22;2732;52.092;11.556;2023-04-03T19:49:52;4.20;91.50
5419;DHT22;2732;52.092;11.556;2023-04-03T19:54:52;4.10;91.50
5419;DHT22;2732;52.092;11.556;2023-04-03T19:59:53;4.00;91.70
5419;DHT22;2732;52.092;11.556;2023-04-03T20:04:54;3.90;91.80
5419;DHT22;2732;52.092;11.556;2023-04-03T20:09:55;3.90;92.00
5419;DHT22;2732;52.092;11.556;2023-04-03T20:14:56;3.80;92.10
5419;DHT22;2732;52.092;11.556;2023-04-03T20:19:58;3.70;92.30
5419;DHT22;2732;52.092;11.556;2023-04-03T20:25:03;3.70;92.40
5419;DHT22;2732;52.092;11.556;2023-04-03T20:30:06;3.60;92.60
5419;DHT22;2732;52.092;11.556;2023-04-03T20:35:10;3.50;92.60
5419;DHT22;2732;52.092;11.556;2023-04-03T20:40:11;3.40;92.80
5419;DHT22;2732;52.092;11.556;2023-04-03T20:45:12;3.30;92.90
5419;DHT22;2732;52.092;11.556;2023-04-03T20:50:13;3.20;93.00
5419;DHT22;2732;52.092;11.556;2023-04-03T20:55:15;3.10;93.20
5419;DHT22;2732;52.092;11.556;2023-04-03T21:00:16;3.00;93.30
5419;DHT22;2732;52.092;11.556;2023-04-03T21:05:19;2.90;93.40
5419;DHT22;2732;52.092;11.556;2023-04-03T21:21:25;2.50;93.70
5419;DHT22;2732;52.092;11.556;2023-04-03T21:26:26;2.50;93.90
5419;DHT22;2732;52.092;11.556;2023-04-03T21:31:57;2.40;94.00
5419;DHT22;2732;52.092;11.556;2023-04-03T21:37:01;2.30;94.20
5419;DHT22;2732;52.092;11.556;2023-04-03T21:42:03;2.20;94.60
5419;DHT22;2732;52.092;11.556;2023-04-03T21:47:06;2.20;94.50
5419;DHT22;2732;52.092;11.556;2023-04-03T21:52:08;2.10;94.60
5419;DHT22;2732;52.092;11.556;2023-04-03T21:57:08;2.00;94.90
5419;DHT22;2732;52.092;11.556;2023-04-03T22:02:10;1.90;95.10
5419;DHT22;2732;52.092;11.556;2023-04-03T22:07:12;1.80;95.20
5419;DHT22;2732;52.092;11.556;2023-04-03T22:12:13;1.70;95.30
5419;DHT22;2732;52.092;11.556;2023-04-03T22:17:13;1.60;95.50
5419;DHT22;2732;52.092;11.556;2023-04-03T22:22:14;1.50;95.60
5419;DHT22;2732;52.092;11.556;2023-04-03T22:27:15;1.50;95.70
5419;DHT22;2732;52.092;11.556;2023-04-03T22:32:16;1.40;95.90
5419;DHT22;2732;52.092;11.556;2023-04-03T22:37:16;1.30;96.20
5419;DHT22;2732;52.092;11.556;2023-04-03T22:42:17;1.20;96.40
5419;DHT22;2732;52.092;11.556;2023-04-03T22:47:20;1.10;96.50
5419;DHT22;2732;52.092;11.556;2023-04-03T22:52:21;1.10;96.60
5419;DHT22;2732;52.092;11.556;2023-04-03T22:57:22;1.10;96.80
5419;DHT22;2732;52.092;11.556;2023-04-03T23:02:22;1.00;97.00
5419;DHT22;2732;52.092;11.556;2023-04-03T23:07:23;1.00;97.10
5419;DHT22;2732;52.092;11.556;2023-04-03T23:12:23;0.90;97.10
5419;DHT22;2732;52.092;11.556;2023-04-03T23:17:24;0.90;97.30
5419;DHT22;2732;52.092;11.556;2023-04-03T23:22:25;0.90;97.40
5419;DHT22;2732;52.092;11.556;2023-04-03T23:27:26;0.80;97.60
5419;DHT22;2732;52.092;11.556;2023-04-03T23:32:27;0.80;97.80
5419;DHT22;2732;52.092;11.556;2023-04-03T23:37:29;0.80;98.00
5419;DHT22;2732;52.092;11.556;2023-04-03T23:42:29;0.70;98.10
5419;DHT22;2732;52.092;11.556;2023-04-03T23:47:30;0.60;98.40
5419;DHT22;2732;52.092;11.556;2023-04-03T23:52:31;0.60;98.60
5419;DHT22;2732;52.092;11.556;2023-04-03T23:57:32;0.50;98.70
